createdAt,value
2019-02-05T00:01:34.184Z,100537.38
2019-02-05T00:04:02.588Z,100539.69
2019-02-05T00:06:30.501Z,100546.91
2019-02-05T00:08:58.266Z,100550.42
2019-02-05T00:11:26.145Z,100559.06
2019-02-05T00:13:53.882Z,100560.83
2019-02-05T00:16:21.680Z,100561.68
2019-02-05T00:18:51.625Z,100562.73
2019-02-05T00:21:19.172Z,100558.92
2019-02-05T00:23:46.976Z,100557.62
2019-02-05T00:26:14.785Z,100548.81
2019-02-05T00:28:42.504Z,100547.28
2019-02-05T00:31:10.332Z,100548.25
2019-02-05T00:33:38.170Z,100547.66
2019-02-05T00:36:05.961Z,100541.02
2019-02-05T00:38:33.711Z,100534.88
2019-02-05T00:41:01.550Z,100531.64
2019-02-05T00:43:31.534Z,100532.95
2019-02-05T00:45:59.349Z,100533.73
2019-02-05T00:48:27.112Z,100538.31
2019-02-05T00:50:54.908Z,100539.90
2019-02-05T00:53:22.961Z,100535.61
2019-02-05T00:55:50.714Z,100533.22
2019-02-05T00:58:18.536Z,100539.51
2019-02-05T01:00:46.316Z,100537.97
2019-02-05T01:03:14.238Z,100535.17
2019-02-05T01:05:42.055Z,100529.05
2019-02-05T01:08:09.986Z,100533.31
2019-02-05T01:10:38.078Z,100533.51
2019-02-05T01:13:05.893Z,100525.04
2019-02-05T01:15:33.654Z,100529.21
2019-02-05T01:18:01.398Z,100523.30
2019-02-05T01:20:29.175Z,100525.35
2019-02-05T01:22:56.984Z,100531.31
2019-02-05T01:25:24.815Z,100537.22
2019-02-05T01:27:52.617Z,100531.77
2019-02-05T01:30:24.971Z,100523.02
2019-02-05T01:32:52.855Z,100514.83
2019-02-05T01:35:21.085Z,100507.56
2019-02-05T01:37:48.948Z,100502.64
2019-02-05T01:40:18.900Z,100499.34
2019-02-05T01:42:46.708Z,100495.56
2019-02-05T01:45:17.155Z,100493.41
2019-02-05T01:47:44.944Z,100496.06
2019-02-05T01:50:17.014Z,100496.25
2019-02-05T01:52:44.955Z,100495.11
2019-02-05T01:55:13.582Z,100492.86
2019-02-05T01:57:41.861Z,100496.31
2019-02-05T02:00:14.412Z,100500.94
2019-02-05T02:02:42.231Z,100503.01
2019-02-05T02:05:10.302Z,100506.19
2019-02-05T02:07:38.139Z,100505.49
2019-02-05T02:10:08.002Z,100501.05
2019-02-05T02:12:36.125Z,100499.98
2019-02-05T02:15:05.409Z,100504.40
2019-02-05T02:17:33.376Z,100508.52
2019-02-05T02:20:01.135Z,100516.31
2019-02-05T02:22:29.156Z,100517.64
2019-02-05T02:24:58.765Z,100510.88
2019-02-05T02:27:26.913Z,100504.73
2019-02-05T02:29:54.767Z,100494.87
2019-02-05T02:32:22.556Z,100491.00
2019-02-05T02:34:50.359Z,100490.83
2019-02-05T02:37:18.177Z,100495.33
2019-02-05T02:39:45.969Z,100496.52
2019-02-05T02:42:13.739Z,100491.88
2019-02-05T02:44:41.574Z,100486.03
2019-02-05T02:47:09.328Z,100485.31
2019-02-05T02:49:37.130Z,100485.47
2019-02-05T02:52:04.923Z,100484.26
2019-02-05T02:54:32.727Z,100477.31
2019-02-05T02:57:04.976Z,100487.19
2019-02-05T02:59:30.263Z,100479.36
2019-02-05T03:01:58.762Z,100454.26
2019-02-05T03:04:26.580Z,100454.09
2019-02-05T03:06:54.388Z,100465.31
2019-02-05T03:09:22.174Z,100464.64
2019-02-05T03:11:49.950Z,100471.33
2019-02-05T03:14:17.754Z,100467.05
2019-02-05T03:16:45.866Z,100459.95
2019-02-05T03:19:13.660Z,100458.39
2019-02-05T03:21:41.762Z,100462.30
2019-02-05T03:24:09.543Z,100472.24
2019-02-05T03:26:37.344Z,100481.28
2019-02-05T03:29:05.152Z,100474.52
2019-02-05T03:31:32.985Z,100477.76
2019-02-05T03:34:00.750Z,100469.11
2019-02-05T03:36:28.585Z,100481.33
2019-02-05T03:38:56.375Z,100485.52
2019-02-05T03:41:24.830Z,100479.14
2019-02-05T03:43:52.569Z,100482.91
2019-02-05T03:46:20.682Z,100476.92
2019-02-05T03:48:49.449Z,100481.56
2019-02-05T03:52:01.423Z,100488.66
2019-02-05T03:55:36.919Z,100489.19
2019-02-05T03:59:09.287Z,100501.10
2019-02-05T04:02:41.637Z,100506.62
2019-02-05T04:05:48.428Z,100504.55
2019-02-05T04:09:26.315Z,100502.86
2019-02-05T04:12:49.442Z,100506.97
2019-02-05T04:17:00.830Z,100507.80
2019-02-05T04:20:53.007Z,100504.76
2019-02-05T04:24:01.747Z,100495.59
2019-02-05T04:27:47.866Z,100502.65
2019-02-05T04:31:23.260Z,100508.75
2019-02-05T04:34:42.224Z,100506.64
2019-02-05T04:38:06.732Z,100507.51
2019-02-05T04:41:15.657Z,100502.70
2019-02-05T04:44:51.731Z,100515.61
2019-02-05T04:48:28.463Z,100515.63
2019-02-05T04:51:47.962Z,100519.48
2019-02-05T04:55:07.659Z,100520.94
2019-02-05T04:58:28.276Z,100518.67
2019-02-05T05:01:53.705Z,100513.20
2019-02-05T05:04:43.157Z,100519.43
2019-02-05T05:08:15.447Z,100521.09
2019-02-05T05:10:46.034Z,100528.02
2019-02-05T05:13:13.856Z,100526.48
2019-02-05T05:15:41.870Z,100527.93
2019-02-05T05:18:10.105Z,100531.38
2019-02-05T05:20:38.283Z,100529.92
2019-02-05T05:23:06.086Z,100533.20
2019-02-05T05:25:34.301Z,100532.08
2019-02-05T05:28:09.772Z,100528.74
2019-02-05T05:30:31.990Z,100534.45
2019-02-05T05:32:59.810Z,100530.73
2019-02-05T05:35:41.846Z,100533.38
2019-02-05T05:38:07.673Z,100530.30
2019-02-05T05:40:35.446Z,100528.23
2019-02-05T05:43:03.294Z,100532.37
2019-02-05T05:45:31.262Z,100545.42
2019-02-05T05:47:59.080Z,100547.59
2019-02-05T05:50:26.812Z,100549.07
2019-02-05T05:52:54.622Z,100550.18
2019-02-05T05:55:22.429Z,100548.17
2019-02-05T05:57:50.223Z,100545.69
2019-02-05T06:00:39.673Z,100536.19
2019-02-05T06:03:07.479Z,100544.47
2019-02-05T06:05:35.460Z,100542.52
2019-02-05T06:08:03.275Z,100551.42
2019-02-05T06:10:31.028Z,100557.00
2019-02-05T06:12:58.944Z,100561.23
2019-02-05T06:15:27.856Z,100562.37
2019-02-05T06:17:56.934Z,100550.07
2019-02-05T06:20:24.756Z,100548.10
2019-02-05T06:22:53.081Z,100556.10
2019-02-05T06:25:23.605Z,100559.25
2019-02-05T06:27:53.669Z,100563.98
2019-02-05T06:30:33.674Z,100564.55
2019-02-05T06:33:01.457Z,100567.16
2019-02-05T06:35:48.354Z,100560.33
2019-02-05T06:38:16.135Z,100566.09
2019-02-05T06:40:43.919Z,100568.77
2019-02-05T06:43:11.945Z,100572.47
2019-02-05T06:45:41.552Z,100574.83
2019-02-05T06:48:09.438Z,100578.64
2019-02-05T06:50:37.702Z,100576.27
2019-02-05T06:53:05.499Z,100571.70
2019-02-05T06:55:33.551Z,100582.87
2019-02-05T06:58:01.356Z,100590.34
2019-02-05T07:00:29.140Z,100583.20
2019-02-05T07:02:56.971Z,100580.10
2019-02-05T07:05:24.859Z,100577.78
2019-02-05T07:07:52.969Z,100567.35
2019-02-05T07:10:21.275Z,100567.47
2019-02-05T07:12:51.128Z,100572.86
2019-02-05T07:15:18.822Z,100571.46
2019-02-05T07:17:49.845Z,100578.45
2019-02-05T07:20:16.582Z,100586.34
2019-02-05T07:22:44.369Z,100572.61
2019-02-05T07:25:14.344Z,100570.13
2019-02-05T07:27:42.179Z,100568.30
2019-02-05T07:30:17.417Z,100569.97
2019-02-05T07:32:45.276Z,100573.36
2019-02-05T07:35:13.688Z,100569.41
2019-02-05T07:37:41.497Z,100565.64
2019-02-05T07:40:12.122Z,100575.42
2019-02-05T07:42:40.191Z,100576.93
2019-02-05T07:45:11.792Z,100578.70
2019-02-05T07:47:39.584Z,100579.37
2019-02-05T07:50:11.794Z,100588.75
2019-02-05T07:52:39.652Z,100589.50
2019-02-05T07:55:08.555Z,100604.78
2019-02-05T07:57:36.371Z,100605.33
2019-02-05T08:00:09.814Z,100605.02
2019-02-05T08:02:37.662Z,100605.44
2019-02-05T08:05:09.141Z,100614.37
2019-02-05T08:07:36.945Z,100619.97
2019-02-05T08:10:05.655Z,100619.32
2019-02-05T08:12:33.451Z,100616.81
2019-02-05T08:15:01.247Z,100623.58
2019-02-05T08:17:29.557Z,100623.63
2019-02-05T08:19:57.851Z,100626.41
2019-02-05T08:22:25.686Z,100623.37
2019-02-05T08:24:53.401Z,100630.00
2019-02-05T08:27:21.171Z,100632.58
2019-02-05T08:29:48.930Z,100630.86
2019-02-05T08:32:18.853Z,100633.72
2019-02-05T08:34:46.662Z,100628.50
2019-02-05T08:37:14.752Z,100633.31
2019-02-05T08:39:42.604Z,100632.77
2019-02-05T08:42:10.372Z,100628.98
2019-02-05T08:44:38.210Z,100629.66
2019-02-05T08:47:06.219Z,100627.47
2019-02-05T08:49:34.012Z,100632.42
2019-02-05T08:52:01.813Z,100626.08
2019-02-05T08:54:29.648Z,100630.67
2019-02-05T08:57:03.184Z,100627.89
2019-02-05T08:59:30.963Z,100638.20
2019-02-05T09:01:58.745Z,100628.91
2019-02-05T09:04:26.476Z,100634.77
2019-02-05T09:06:54.490Z,100637.91
2019-02-05T09:09:22.309Z,100636.47
2019-02-05T09:11:51.422Z,100632.06
2019-02-05T09:14:19.726Z,100628.70
2019-02-05T09:16:52.700Z,100625.09
2019-02-05T09:19:20.487Z,100626.19
2019-02-05T09:21:48.262Z,100625.91
2019-02-05T09:24:16.018Z,100630.09
2019-02-05T09:26:44.024Z,100632.89
2019-02-05T09:29:11.795Z,100623.92
2019-02-05T09:31:39.944Z,100629.44
2019-02-05T09:34:07.687Z,100628.56
2019-02-05T09:36:45.587Z,100629.38
2019-02-05T09:39:13.350Z,100627.33
2019-02-05T09:41:41.278Z,100624.06
2019-02-05T09:44:09.036Z,100624.78
2019-02-05T09:46:36.890Z,100633.05
2019-02-05T09:49:05.085Z,100630.52
2019-02-05T09:51:33.001Z,100630.58
2019-02-05T09:54:00.784Z,100633.84
2019-02-05T09:56:28.918Z,100640.19
2019-02-05T09:58:56.678Z,100635.09
2019-02-05T10:01:24.471Z,100632.16
2019-02-05T10:03:52.230Z,100635.49
2019-02-05T10:06:20.282Z,100640.94
2019-02-05T10:08:48.062Z,100647.29
2019-02-05T10:11:15.833Z,100648.56
2019-02-05T10:13:43.664Z,100655.19
2019-02-05T10:16:11.619Z,100664.13
2019-02-05T10:18:39.448Z,100658.23
2019-02-05T10:21:07.235Z,100658.41
2019-02-05T10:23:35.049Z,100651.32
2019-02-05T10:26:03.008Z,100655.91
2019-02-05T10:28:30.832Z,100650.75
2019-02-05T10:30:58.625Z,100648.08
2019-02-05T10:33:26.453Z,100641.77
2019-02-05T10:35:54.540Z,100649.19
2019-02-05T10:38:22.694Z,100652.33
2019-02-05T10:40:50.603Z,100651.12
2019-02-05T10:43:18.426Z,100654.00
2019-02-05T10:45:46.452Z,100662.92
2019-02-05T10:48:14.218Z,100657.69
2019-02-05T10:50:41.978Z,100653.05
2019-02-05T10:53:10.307Z,100654.59
2019-02-05T10:55:43.303Z,100655.78
2019-02-05T10:58:11.226Z,100647.66
2019-02-05T11:00:39.128Z,100642.86
2019-02-05T11:03:07.784Z,100645.84
2019-02-05T11:05:36.978Z,100647.09
2019-02-05T11:08:08.378Z,100646.78
2019-02-05T11:10:36.352Z,100634.17
2019-02-05T11:13:05.600Z,100633.43
2019-02-05T11:15:33.426Z,100634.26
2019-02-05T11:18:01.621Z,100634.20
2019-02-05T11:20:29.814Z,100633.09
2019-02-05T11:22:58.830Z,100627.63
2019-02-05T11:25:27.045Z,100633.89
2019-02-05T11:27:55.972Z,100632.72
2019-02-05T11:30:36.084Z,100628.69
2019-02-05T11:33:04.512Z,100621.13
2019-02-05T11:35:39.883Z,100621.66
2019-02-05T11:38:10.178Z,100607.38
2019-02-05T11:40:38.619Z,100618.19
2019-02-05T11:43:06.459Z,100621.58
2019-02-05T11:45:39.418Z,100610.76
2019-02-05T11:48:14.761Z,100613.69
2019-02-05T11:50:42.590Z,100609.64
2019-02-05T11:53:10.393Z,100608.45
2019-02-05T11:55:38.660Z,100611.27
2019-02-05T11:58:06.462Z,100602.53
2019-02-05T12:00:48.540Z,100597.09
2019-02-05T12:03:16.739Z,100596.39
2019-02-05T12:05:44.496Z,100591.78
2019-02-05T12:08:12.349Z,100581.00
2019-02-05T12:10:40.084Z,100585.56
2019-02-05T12:13:07.914Z,100589.95
2019-02-05T12:15:35.746Z,100582.00
2019-02-05T12:18:04.015Z,100575.00
2019-02-05T12:20:31.816Z,100579.23
2019-02-05T12:23:00.287Z,100583.91
2019-02-05T12:25:28.418Z,100575.65
2019-02-05T12:27:56.181Z,100570.88
2019-02-05T12:30:30.390Z,100565.87
2019-02-05T12:32:58.202Z,100571.57
2019-02-05T12:35:26.125Z,100555.25
2019-02-05T12:37:53.951Z,100560.34
2019-02-05T12:40:22.562Z,100563.71
2019-02-05T12:42:50.471Z,100565.44
2019-02-05T12:45:21.810Z,100563.72
2019-02-05T12:47:49.608Z,100570.03
2019-02-05T12:50:23.566Z,100569.41
2019-02-05T12:52:51.572Z,100574.75
2019-02-05T12:55:19.920Z,100574.25
2019-02-05T12:57:47.720Z,100570.27
2019-02-05T13:00:37.916Z,100567.53
2019-02-05T13:03:06.930Z,100571.14
2019-02-05T13:05:34.790Z,100567.83
2019-02-05T13:08:05.370Z,100565.71
2019-02-05T13:10:35.733Z,100562.08
2019-02-05T13:13:05.879Z,100562.52
2019-02-05T13:15:34.153Z,100561.94
2019-02-05T13:18:01.934Z,100569.42
2019-02-05T13:20:30.133Z,100559.12
2019-02-05T13:22:59.531Z,100552.59
2019-02-05T13:25:28.265Z,100552.55
2019-02-05T13:27:56.107Z,100555.05
2019-02-05T13:30:26.623Z,100554.88
2019-02-05T13:32:54.668Z,100558.98
2019-02-05T13:35:22.974Z,100556.86
2019-02-05T13:37:51.293Z,100554.01
2019-02-05T13:40:35.971Z,100551.62
2019-02-05T13:43:05.897Z,100554.77
2019-02-05T13:45:55.381Z,100555.25
2019-02-05T13:48:25.139Z,100560.01
2019-02-05T13:50:53.062Z,100563.05
2019-02-05T13:53:20.887Z,100560.70
2019-02-05T13:55:49.930Z,100567.84
2019-02-05T13:58:17.948Z,100561.12
2019-02-05T14:00:50.473Z,100562.02
2019-02-05T14:03:18.393Z,100567.95
2019-02-05T14:05:46.551Z,100564.66
2019-02-05T14:08:14.356Z,100562.34
2019-02-05T14:10:42.981Z,100565.55
2019-02-05T14:13:11.032Z,100566.13
2019-02-05T14:15:40.698Z,100570.16
2019-02-05T14:18:09.151Z,100569.27
2019-02-05T14:20:36.963Z,100575.15
2019-02-05T14:23:04.728Z,100574.90
2019-02-05T14:25:32.556Z,100574.05
2019-02-05T14:28:00.335Z,100572.39
2019-02-05T14:30:44.944Z,100572.13
2019-02-05T14:33:12.787Z,100571.97
2019-02-05T14:35:40.670Z,100563.42
2019-02-05T14:38:09.505Z,100570.99
2019-02-05T14:40:37.340Z,100566.23
2019-02-05T14:43:06.472Z,100569.39
2019-02-05T14:45:34.622Z,100564.36
2019-02-05T14:48:02.591Z,100559.97
2019-02-05T14:50:31.549Z,100563.58
2019-02-05T14:52:59.458Z,100564.95
2019-02-05T14:55:45.315Z,100569.79
2019-02-05T14:58:15.179Z,100572.75
2019-02-05T15:00:42.972Z,100570.08
2019-02-05T15:03:12.722Z,100574.39
2019-02-05T15:05:41.695Z,100576.65
2019-02-05T15:08:11.152Z,100572.70
2019-02-05T15:10:38.970Z,100576.98
2019-02-05T15:13:07.196Z,100580.34
2019-02-05T15:15:35.542Z,100585.70
2019-02-05T15:18:04.380Z,100585.45
2019-02-05T15:20:35.840Z,100584.27
2019-02-05T15:23:05.650Z,100588.97
2019-02-05T15:25:33.540Z,100594.61
2019-02-05T15:28:01.275Z,100594.02
2019-02-05T15:30:33.194Z,100595.79
2019-02-05T15:33:19.264Z,100597.72
2019-02-05T15:36:26.786Z,100601.00
2019-02-05T15:38:54.558Z,100592.41
2019-02-05T15:41:30.347Z,100599.44
2019-02-05T15:44:00.653Z,100597.66
2019-02-05T15:46:27.997Z,100601.72
2019-02-05T15:49:15.287Z,100597.53
2019-02-05T15:51:43.053Z,100600.39
2019-02-05T15:54:10.834Z,100600.81
2019-02-05T15:56:38.779Z,100607.04
2019-02-05T15:59:07.161Z,100603.34
2019-02-05T16:01:34.954Z,100604.88
2019-02-05T16:04:02.766Z,100610.03
2019-02-05T16:06:35.672Z,100617.56
2019-02-05T16:09:07.208Z,100616.25
2019-02-05T16:11:35.041Z,100618.34
2019-02-05T16:14:02.803Z,100619.48
2019-02-05T16:16:30.676Z,100621.02
2019-02-05T16:18:58.499Z,100626.70
2019-02-05T16:21:26.281Z,100635.59
2019-02-05T16:23:54.090Z,100629.36
2019-02-05T16:26:22.117Z,100635.49
2019-02-05T16:28:50.011Z,100628.27
2019-02-05T16:31:17.803Z,100629.27
2019-02-05T16:33:45.621Z,100632.06
2019-02-05T16:36:13.440Z,100635.11
2019-02-05T16:38:41.286Z,100636.89
2019-02-05T16:41:09.140Z,100634.97
2019-02-05T16:43:36.969Z,100636.39
2019-02-05T16:46:10.082Z,100642.57
2019-02-05T16:48:38.184Z,100648.95
2019-02-05T16:51:06.371Z,100646.73
2019-02-05T16:53:34.203Z,100639.31
2019-02-05T16:56:02.333Z,100636.97
2019-02-05T16:58:30.170Z,100641.63
2019-02-05T17:00:57.999Z,100648.67
2019-02-05T17:03:25.810Z,100646.76
2019-02-05T17:05:56.667Z,100648.97
2019-02-05T17:08:24.499Z,100649.19
2019-02-05T17:10:52.443Z,100651.88
2019-02-05T17:13:20.214Z,100652.83
2019-02-05T17:15:48.009Z,100654.23
2019-02-05T17:18:23.211Z,100654.80
2019-02-05T17:20:45.491Z,100655.47
2019-02-05T17:23:13.286Z,100657.37
2019-02-05T17:25:41.166Z,100658.27
2019-02-05T17:28:08.969Z,100668.20
2019-02-05T17:30:38.181Z,100668.77
2019-02-05T17:33:06.380Z,100672.73
2019-02-05T17:35:35.552Z,100677.13
2019-02-05T17:38:06.478Z,100674.69
2019-02-05T17:40:34.246Z,100673.95
2019-02-05T17:43:02.046Z,100676.88
2019-02-05T17:45:32.854Z,100675.59
2019-02-05T17:48:04.489Z,100669.34
2019-02-05T17:50:32.994Z,100670.35
2019-02-05T17:53:01.131Z,100669.29
2019-02-05T17:55:28.956Z,100670.73
2019-02-05T17:57:56.794Z,100669.67
2019-02-05T18:00:36.620Z,100631.58
2019-02-05T18:03:05.134Z,100667.70
2019-02-05T18:05:34.926Z,100669.52
2019-02-05T18:08:03.351Z,100663.41
2019-02-05T18:10:31.195Z,100667.66
2019-02-05T18:12:59.032Z,100665.18
2019-02-05T18:15:30.263Z,100667.78
2019-02-05T18:17:58.219Z,100670.92
2019-02-05T18:20:25.990Z,100672.98
2019-02-05T18:22:54.126Z,100672.92
2019-02-05T18:25:22.211Z,100666.56
2019-02-05T18:27:50.126Z,100671.64
2019-02-05T18:30:29.679Z,100673.14
2019-02-05T18:33:03.625Z,100670.91
2019-02-05T18:35:27.242Z,100674.72
2019-02-05T18:37:55.115Z,100671.83
2019-02-05T18:40:23.286Z,100679.24
2019-02-05T18:42:51.207Z,100679.59
2019-02-05T18:45:19.892Z,100676.05
2019-02-05T18:47:47.799Z,100682.15
2019-02-05T18:50:19.326Z,100678.03
2019-02-05T18:52:47.624Z,100680.20
2019-02-05T18:55:15.722Z,100678.14
2019-02-05T18:57:43.556Z,100671.16
2019-02-05T19:00:28.430Z,100674.33
2019-02-05T19:02:56.329Z,100675.12
2019-02-05T19:05:24.781Z,100672.51
2019-02-05T19:07:52.674Z,100671.88
2019-02-05T19:10:40.018Z,100520.84
2019-02-05T19:13:07.864Z,100670.69
2019-02-05T19:15:36.679Z,100666.78
2019-02-05T19:18:06.098Z,100653.56
2019-02-05T19:20:34.382Z,100658.84
2019-02-05T19:23:02.688Z,100657.37
2019-02-05T19:25:49.368Z,100657.08
2019-02-05T19:28:34.696Z,100654.25
2019-02-05T19:31:33.194Z,100504.63
2019-02-05T19:34:01.108Z,100655.16
2019-02-05T19:36:29.059Z,100662.56
2019-02-05T19:38:56.973Z,100665.67
2019-02-05T19:41:24.933Z,100664.52
2019-02-05T19:43:52.923Z,100668.66
2019-02-05T19:46:55.310Z,100672.70
2019-02-05T19:49:31.182Z,100671.52
2019-02-05T19:51:59.104Z,100674.37
2019-02-05T19:54:27.400Z,100678.48
2019-02-05T19:56:55.426Z,100682.94
2019-02-05T19:59:23.679Z,100688.41
2019-02-05T20:01:51.481Z,100687.67
2019-02-05T20:04:19.333Z,100688.24
2019-02-05T20:06:47.164Z,100686.89
2019-02-05T20:09:15.015Z,100682.86
2019-02-05T20:11:42.819Z,100679.56
2019-02-05T20:14:10.714Z,100682.58
2019-02-05T20:16:44.308Z,100674.44
2019-02-05T20:19:12.546Z,100677.98
2019-02-05T20:21:41.016Z,100679.06
2019-02-05T20:24:14.854Z,100676.19
2019-02-05T20:26:47.599Z,100669.14
2019-02-05T20:29:15.215Z,100675.69
2019-02-05T20:31:43.268Z,100676.11
2019-02-05T20:34:11.149Z,100678.81
2019-02-05T20:36:42.402Z,100681.59
2019-02-05T20:39:24.770Z,100678.63
2019-02-05T20:41:53.068Z,100683.56
2019-02-05T20:44:21.029Z,100683.70
2019-02-05T20:46:48.963Z,100686.32
2019-02-05T20:49:16.987Z,100682.16
2019-02-05T20:51:45.497Z,100683.82
2019-02-05T20:54:13.657Z,100679.70
2019-02-05T20:56:44.443Z,100676.63
2019-02-05T20:59:12.256Z,100681.59
2019-02-05T21:01:40.082Z,100685.23
2019-02-05T21:04:07.995Z,100680.08
2019-02-05T21:06:35.819Z,100687.22
2019-02-05T21:09:18.189Z,100682.37
2019-02-05T21:11:46.119Z,100686.19
2019-02-05T21:14:13.973Z,100680.13
2019-02-05T21:16:41.767Z,100671.95
2019-02-05T21:19:09.561Z,100678.83
2019-02-05T21:21:37.417Z,100673.79
2019-02-05T21:24:05.861Z,100669.94
2019-02-05T21:26:33.774Z,100671.33
2019-02-05T21:29:01.526Z,100674.75
2019-02-05T21:31:29.342Z,100675.97
2019-02-05T21:33:57.188Z,100676.60
2019-02-05T21:36:25.052Z,100677.44
2019-02-05T21:38:52.973Z,100676.78
2019-02-05T21:41:20.783Z,100674.51
2019-02-05T21:43:48.643Z,100683.99
2019-02-05T21:46:16.455Z,100676.70
2019-02-05T21:48:44.343Z,100677.23
2019-02-05T21:51:12.139Z,100676.48
2019-02-05T21:53:39.957Z,100675.74
2019-02-05T21:56:07.732Z,100681.12
2019-02-05T21:58:35.552Z,100681.00
2019-02-05T22:01:04.878Z,100682.77
2019-02-05T22:03:32.678Z,100681.13
2019-02-05T22:06:05.719Z,100679.30
2019-02-05T22:08:33.571Z,100686.80
2019-02-05T22:11:01.388Z,100682.33
2019-02-05T22:13:29.248Z,100680.52
2019-02-05T22:15:57.055Z,100678.66
2019-02-05T22:18:24.804Z,100675.06
2019-02-05T22:20:52.665Z,100676.44
2019-02-05T22:23:21.584Z,100671.55
2019-02-05T22:25:49.407Z,100673.76
2019-02-05T22:28:17.194Z,100673.30
2019-02-05T22:30:46.908Z,100670.05
2019-02-05T22:33:14.701Z,100668.19
2019-02-05T22:35:42.853Z,100665.48
2019-02-05T22:38:10.673Z,100662.12
2019-02-05T22:40:38.458Z,100658.61
2019-02-05T22:43:06.821Z,100659.98
2019-02-05T22:45:34.608Z,100653.98
2019-02-05T22:48:02.362Z,100649.20
2019-02-05T22:50:31.510Z,100647.27
2019-02-05T22:53:00.244Z,100651.70
2019-02-05T22:55:28.093Z,100651.81
2019-02-05T22:57:55.887Z,100651.77
2019-02-05T23:01:13.591Z,100657.48
2019-02-05T23:04:58.945Z,100652.34
2019-02-05T23:07:29.094Z,100655.08
2019-02-05T23:11:03.462Z,100653.72
2019-02-05T23:13:26.133Z,100655.38
2019-02-05T23:15:54.448Z,100654.95
2019-02-05T23:18:22.237Z,100659.83
2019-02-05T23:20:50.042Z,100659.20
2019-02-05T23:23:17.932Z,100655.33
2019-02-05T23:25:45.756Z,100659.41
2019-02-05T23:28:13.538Z,100663.45
2019-02-05T23:30:41.497Z,100667.20
2019-02-05T23:33:09.688Z,100667.42
2019-02-05T23:35:37.551Z,100667.75
2019-02-05T23:38:05.598Z,100668.62
2019-02-05T23:40:33.387Z,100665.48
2019-02-05T23:43:01.170Z,100666.16
2019-02-05T23:45:28.986Z,100671.20
2019-02-05T23:47:56.881Z,100674.08
2019-02-05T23:50:24.985Z,100681.23
2019-02-05T23:52:52.803Z,100680.77
2019-02-05T23:55:20.635Z,100682.81
2019-02-05T23:57:48.431Z,100684.41
